Time;durP1;ratioP1;P1;durP2;ratioP2;P2;SDS_P1;SDS_P2;PMS_P1;PMS_P2;Temp;Humidity;BMP_temperature;BMP_pressure;BME280_temperature;BME280_humidity;BME280_pressure;Samples;Min_cycle;Max_cycle;Signal;HPM_P1;HPM_P2
2021/07/10 00:01:58;;;;;;;3.30;3.00;;;26.00;47.60;;;;;;5019345;28;20033;-60
2021/07/10 00:04:25;;;;;;;4.20;3.72;;;26.00;47.60;;;;;;5008383;28;20044;-57
2021/07/10 00:06:50;;;;;;;3.35;3.05;;;26.00;47.60;;;;;;5005545;28;20034;-60
2021/07/10 00:09:16;;;;;;;3.70;3.17;;;26.00;47.60;;;;;;5001458;28;20025;-59
2021/07/10 00:11:42;;;;;;;3.80;3.38;;;26.00;47.60;;;;;;5007351;28;20065;-61
2021/07/10 00:14:08;;;;;;;3.60;3.30;;;26.00;47.60;;;;;;5003154;28;20030;-58
2021/07/10 00:16:34;;;;;;;4.57;3.30;;;25.90;47.60;;;;;;5029663;28;20078;-55
2021/07/10 00:18:59;;;;;;;3.28;3.00;;;26.00;47.70;;;;;;5031442;28;20361;-58
2021/07/10 00:21:25;;;;;;;3.47;3.17;;;25.90;47.60;;;;;;5027675;28;20033;-57
2021/07/10 00:23:51;;;;;;;3.28;2.97;;;26.00;47.70;;;;;;5014499;28;20161;-62
2021/07/10 00:26:17;;;;;;;3.70;3.30;;;25.90;47.70;;;;;;5014853;28;20449;-59
2021/07/10 00:28:43;;;;;;;3.92;3.53;;;25.90;47.70;;;;;;5011129;28;20206;-59
2021/07/10 00:31:09;;;;;;;3.88;3.45;;;25.90;47.70;;;;;;4999490;28;20038;-57
2021/07/10 00:33:35;;;;;;;4.10;3.45;;;25.90;47.70;;;;;;5018789;28;20445;-58
2021/07/10 00:36:01;;;;;;;3.88;3.50;;;25.90;47.70;;;;;;5035843;28;20065;-57
2021/07/10 00:38:26;;;;;;;3.72;3.38;;;25.90;47.80;;;;;;5023599;28;20038;-59
2021/07/10 00:40:52;;;;;;;3.47;3.17;;;25.90;47.80;;;;;;5016873;28;20034;-57
2021/07/10 00:43:18;;;;;;;3.72;3.28;;;25.90;47.80;;;;;;4995715;28;20038;-60
2021/07/10 00:45:44;;;;;;;3.45;3.15;;;25.90;47.80;;;;;;5034695;28;20060;-58
2021/07/10 00:48:10;;;;;;;3.40;3.10;;;25.90;47.80;;;;;;5020070;28;20080;-59
2021/07/10 00:50:35;;;;;;;3.83;3.15;;;25.90;47.90;;;;;;5035373;28;20029;-59
2021/07/10 00:53:01;;;;;;;3.90;3.58;;;25.80;47.80;;;;;;5019309;28;20100;-56
2021/07/10 00:55:27;;;;;;;3.70;3.40;;;25.90;48.50;;;;;;5018139;28;20036;-57
2021/07/10 00:57:54;;;;;;;4.07;3.67;;;25.90;47.90;;;;;;5019992;28;20099;-57
2021/07/10 01:00:22;;;;;;;3.50;3.20;;;25.80;47.80;;;;;;5031088;28;20047;-59
2021/07/10 01:02:51;;;;;;;3.97;3.58;;;25.90;47.90;;;;;;5019791;28;20112;-56
2021/07/10 01:05:20;;;;;;;4.35;3.80;;;25.80;47.80;;;;;;5026903;28;20038;-60
2021/07/10 01:07:46;;;;;;;4.35;3.63;;;25.80;47.90;;;;;;5017933;28;20041;-59
2021/07/10 01:10:15;;;;;;;4.13;3.58;;;25.80;47.90;;;;;;5037095;28;20029;-57
2021/07/10 01:12:53;;;;;;;3.72;3.42;;;25.80;47.90;;;;;;5031797;28;20492;-58
2021/07/10 01:15:22;;;;;;;4.20;3.80;;;25.80;47.90;;;;;;5006796;28;20104;-58
2021/07/10 01:17:48;;;;;;;4.00;3.60;;;25.80;48.00;;;;;;5027564;28;20461;-55
2021/07/10 01:20:16;;;;;;;3.95;3.40;;;25.80;48.00;;;;;;5024914;28;20108;-59
2021/07/10 01:22:43;;;;;;;3.50;3.10;;;25.80;48.00;;;;;;5031268;28;20041;-57
2021/07/10 01:25:12;;;;;;;4.32;3.63;;;25.80;48.10;;;;;;5033959;28;20514;-58
2021/07/10 01:27:39;;;;;;;3.97;3.33;;;25.80;48.70;;;;;;5029478;28;20038;-56
2021/07/10 01:30:11;;;;;;;4.05;3.33;;;25.80;48.10;;;;;;5028954;28;20038;-56
2021/07/10 01:32:38;;;;;;;4.10;3.70;;;25.80;48.10;;;;;;5005210;28;20061;-55
2021/07/10 01:35:05;;;;;;;4.25;3.80;;;25.80;48.20;;;;;;5025323;28;20120;-58
2021/07/10 01:37:31;;;;;;;4.43;3.78;;;25.80;48.20;;;;;;5022499;28;20026;-54
2021/07/10 01:39:57;;;;;;;3.60;3.30;;;25.70;48.20;;;;;;5031926;28;20503;-58
2021/07/10 01:42:22;;;;;;;4.85;4.03;;;25.70;48.30;;;;;;5011378;28;20061;-61
2021/07/10 01:44:49;;;;;;;3.78;3.20;;;25.70;48.30;;;;;;5007876;28;20041;-61
2021/07/10 01:47:15;;;;;;;4.30;3.90;;;25.70;48.40;;;;;;5036440;28;20033;-56
2021/07/10 01:49:41;;;;;;;4.57;3.70;;;25.70;48.40;;;;;;5029773;28;20338;-60
2021/07/10 01:52:07;;;;;;;4.72;3.95;;;25.70;48.40;;;;;;5029175;28;20087;-56
2021/07/10 01:54:33;;;;;;;4.43;3.90;;;25.70;48.40;;;;;;5013694;28;20038;-57
2021/07/10 01:56:59;;;;;;;4.10;3.70;;;25.70;48.50;;;;;;4997374;28;20030;-61
2021/07/10 01:59:25;;;;;;;4.63;3.83;;;25.70;48.50;;;;;;5034635;28;20051;-60
2021/07/10 02:01:51;;;;;;;4.05;3.67;;;25.60;48.50;;;;;;5016896;28;20061;-60
2021/07/10 02:04:21;;;;;;;4.03;3.65;;;25.70;48.60;;;;;;5009820;28;20050;-57
2021/07/10 02:06:47;;;;;;;3.70;3.30;;;25.70;48.60;;;;;;5020497;28;20167;-58
2021/07/10 02:09:14;;;;;;;4.38;3.97;;;25.70;48.60;;;;;;5023003;28;20045;-60
2021/07/10 02:11:45;;;;;;;4.03;3.28;;;25.60;48.60;;;;;;5016333;28;20041;-62
2021/07/10 02:14:11;;;;;;;4.65;3.70;;;25.60;48.60;;;;;;5010183;28;20445;-57
2021/07/10 02:16:36;;;;;;;3.60;3.30;;;25.70;48.70;;;;;;5011402;28;20096;-57
2021/07/10 02:19:02;;;;;;;4.75;3.83;;;25.70;48.90;;;;;;5017980;28;20357;-61
2021/07/10 02:21:28;;;;;;;4.10;3.70;;;25.60;48.70;;;;;;5016093;28;20044;-59
2021/07/10 02:23:54;;;;;;;4.25;3.58;;;25.70;48.80;;;;;;5016594;28;20096;-58
2021/07/10 02:26:20;;;;;;;3.88;3.47;;;25.60;48.80;;;;;;5006791;28;20035;-59
2021/07/10 02:28:46;;;;;;;3.42;3.13;;;25.60;48.80;;;;;;5001969;28;20022;-59
2021/07/10 02:31:12;;;;;;;4.28;3.60;;;25.60;48.80;;;;;;5024545;28;20029;-59
2021/07/10 02:33:39;;;;;;;3.88;3.45;;;25.60;48.80;;;;;;5019226;28;20110;-61
2021/07/10 02:36:05;;;;;;;4.32;3.92;;;25.60;48.80;;;;;;5009116;28;20080;-57
2021/07/10 02:38:31;;;;;;;3.70;3.40;;;25.60;48.80;;;;;;5005101;28;20442;-61
2021/07/10 02:40:57;;;;;;;4.05;3.65;;;25.60;48.80;;;;;;5029952;28;20026;-61
2021/07/10 02:43:23;;;;;;;4.10;3.70;;;25.60;48.80;;;;;;5015373;28;20052;-59
2021/07/10 02:45:48;;;;;;;4.10;3.70;;;25.60;48.80;;;;;;5018900;28;20124;-59
2021/07/10 02:48:14;;;;;;;4.53;3.55;;;25.60;48.80;;;;;;5018146;28;20030;-59
2021/07/10 02:50:41;;;;;;;3.63;3.33;;;25.60;48.80;;;;;;5016368;28;20026;-62
2021/07/10 02:53:07;;;;;;;3.90;3.25;;;25.60;48.80;;;;;;5001901;28;20377;-58
2021/07/10 02:55:34;;;;;;;4.50;4.00;;;25.60;48.80;;;;;;5011355;28;20041;-57
2021/07/10 02:58:01;;;;;;;3.75;3.45;;;25.60;48.80;;;;;;5009400;28;20031;-57
2021/07/10 03:00:28;;;;;;;4.53;3.95;;;25.60;48.80;;;;;;5010978;28;20090;-53
2021/07/10 03:02:56;;;;;;;3.50;3.20;;;25.60;48.80;;;;;;5021868;28;20135;-58
2021/07/10 03:05:22;;;;;;;3.60;3.30;;;25.50;48.70;;;;;;5022286;28;20037;-60
2021/07/10 03:07:48;;;;;;;4.28;3.70;;;25.50;48.70;;;;;;5020359;28;20422;-58
2021/07/10 03:10:17;;;;;;;3.67;3.35;;;25.50;48.70;;;;;;5025190;28;20419;-58
2021/07/10 03:12:43;;;;;;;4.03;3.63;;;25.50;48.70;;;;;;5014248;28;20036;-55
2021/07/10 03:15:10;;;;;;;4.45;3.53;;;25.50;48.70;;;;;;5020966;28;20112;-62
2021/07/10 03:17:36;;;;;;;3.63;3.30;;;25.50;48.70;;;;;;5028569;28;20410;-56
2021/07/10 03:20:06;;;;;;;3.53;3.22;;;25.50;48.70;;;;;;5029228;28;20029;-59
2021/07/10 03:22:32;;;;;;;4.03;3.63;;;25.50;48.70;;;;;;5016537;28;20084;-57
2021/07/10 03:24:58;;;;;;;4.13;3.60;;;25.50;48.70;;;;;;5020304;28;20038;-58
2021/07/10 03:27:24;;;;;;;4.30;3.53;;;25.50;48.70;;;;;;5015042;28;20445;-57
2021/07/10 03:29:50;;;;;;;3.90;3.50;;;25.40;48.60;;;;;;5003093;28;20085;-54
2021/07/10 03:32:15;;;;;;;4.35;3.70;;;25.50;48.70;;;;;;5005385;28;20026;-54
2021/07/10 03:34:41;;;;;;;3.50;3.20;;;25.50;48.70;;;;;;5017356;28;20041;-60
2021/07/10 03:37:07;;;;;;;3.47;3.08;;;25.50;48.70;;;;;;5014711;28;20034;-58
2021/07/10 03:39:33;;;;;;;3.65;3.35;;;25.50;48.70;;;;;;5031399;28;20044;-61
2021/07/10 03:41:58;;;;;;;3.40;3.10;;;25.40;48.60;;;;;;5024366;28;20061;-57
2021/07/10 03:44:24;;;;;;;3.75;3.42;;;25.40;48.70;;;;;;5029944;28;20449;-58
2021/07/10 03:46:50;;;;;;;3.80;3.40;;;25.40;48.60;;;;;;5025419;28;20065;-56
2021/07/10 03:49:16;;;;;;;4.30;3.40;;;25.40;48.60;;;;;;5019069;28;20033;-60
2021/07/10 03:51:41;;;;;;;3.45;3.15;;;25.40;48.60;;;;;;5010572;28;20042;-58
2021/07/10 03:54:07;;;;;;;3.80;3.40;;;25.40;48.60;;;;;;4995540;28;20049;-59
2021/07/10 03:56:33;;;;;;;3.90;3.50;;;25.40;48.60;;;;;;5001783;28;20032;-59
2021/07/10 03:58:59;;;;;;;3.63;3.33;;;25.40;48.60;;;;;;5014627;28;20430;-57
2021/07/10 04:01:24;;;;;;;4.07;3.38;;;25.40;48.60;;;;;;5022402;28;20026;-53
2021/07/10 04:03:50;;;;;;;3.42;3.05;;;25.40;48.60;;;;;;5011127;28;20038;-56
2021/07/10 04:06:16;;;;;;;3.75;3.45;;;25.40;48.60;;;;;;5005633;28;20021;-65
2021/07/10 04:08:42;;;;;;;3.67;3.35;;;25.40;48.70;;;;;;5023830;28;20507;-60
2021/07/10 04:11:10;;;;;;;3.47;3.00;;;25.40;48.70;;;;;;5009980;28;20532;-61
2021/07/10 04:13:36;;;;;;;3.53;3.22;;;25.40;48.60;;;;;;5032623;28;20033;-56
2021/07/10 04:16:02;;;;;;;3.00;2.70;;;25.40;48.70;;;;;;5021416;28;20044;-61
2021/07/10 04:18:27;;;;;;;3.70;3.40;;;25.40;48.70;;;;;;5015318;28;20109;-60
2021/07/10 04:20:53;;;;;;;3.63;3.28;;;25.40;48.70;;;;;;5004979;28;20437;-57
2021/07/10 04:23:20;;;;;;;3.80;3.40;;;25.40;48.70;;;;;;5034033;28;20037;-60
2021/07/10 04:25:46;;;;;;;3.75;3.30;;;25.40;48.80;;;;;;5005847;28;20438;-60
2021/07/10 04:28:12;;;;;;;3.55;3.00;;;25.40;48.80;;;;;;5016464;28;20465;-58
2021/07/10 04:30:39;;;;;;;3.42;3.13;;;25.40;48.80;;;;;;5019994;28;20025;-59
2021/07/10 04:33:05;;;;;;;3.30;3.00;;;25.40;48.80;;;;;;5029182;28;20108;-54
2021/07/10 04:35:30;;;;;;;2.80;2.60;;;25.40;48.80;;;;;;5015281;28;20038;-57
2021/07/10 04:37:56;;;;;;;3.47;3.15;;;25.40;48.90;;;;;;5028245;28;20659;-57
2021/07/10 04:40:22;;;;;;;4.00;3.58;;;25.40;48.90;;;;;;5014512;28;20037;-55
2021/07/10 04:42:48;;;;;;;3.58;3.25;;;25.40;49.00;;;;;;5019297;28;20038;-57
2021/07/10 04:45:15;;;;;;;3.40;3.10;;;25.40;49.00;;;;;;5007112;28;20065;-60
2021/07/10 04:47:43;;;;;;;4.03;3.30;;;25.40;49.00;;;;;;5025294;28;20117;-60
2021/07/10 04:50:10;;;;;;;5.03;4.30;;;25.40;49.00;;;;;;5004381;28;20354;-62
2021/07/10 04:52:36;;;;;;;3.90;3.60;;;25.40;49.00;;;;;;5028834;28;20440;-55
2021/07/10 04:55:05;;;;;;;4.03;3.50;;;25.40;49.10;;;;;;5016219;28;20049;-56
2021/07/10 04:57:30;;;;;;;3.70;3.30;;;25.40;49.10;;;;;;5016384;28;20049;-60
2021/07/10 04:59:56;;;;;;;4.13;3.60;;;25.40;49.10;;;;;;5014346;28;20037;-58
2021/07/10 05:02:22;;;;;;;4.25;3.85;;;25.40;49.20;;;;;;5021632;28;20429;-57
2021/07/10 05:04:48;;;;;;;4.07;3.67;;;25.40;49.80;;;;;;5032289;28;20187;-54
2021/07/10 05:07:13;;;;;;;4.13;3.70;;;25.40;49.30;;;;;;5020412;28;20030;-54
2021/07/10 05:09:39;;;;;;;3.97;3.60;;;25.40;49.30;;;;;;5013424;28;20452;-58
2021/07/10 05:12:05;;;;;;;4.60;3.90;;;25.40;49.30;;;;;;5014079;28;20045;-58
2021/07/10 05:14:31;;;;;;;4.05;3.65;;;25.40;49.30;;;;;;5014242;28;20062;-58
2021/07/10 05:16:57;;;;;;;4.45;3.60;;;25.40;49.40;;;;;;4999444;28;20120;-61
2021/07/10 05:19:22;;;;;;;5.45;3.97;;;25.40;49.40;;;;;;4996485;28;20588;-58
2021/07/10 05:21:48;;;;;;;4.18;3.78;;;25.40;49.40;;;;;;4997179;28;20396;-57
2021/07/10 05:24:14;;;;;;;3.72;3.35;;;25.40;49.40;;;;;;4994136;28;20046;-56
2021/07/10 05:26:40;;;;;;;3.55;3.22;;;25.40;49.40;;;;;;4996017;28;20469;-56
2021/07/10 05:29:06;;;;;;;4.03;3.60;;;25.40;49.50;;;;;;4994234;28;20031;-59
2021/07/10 05:31:33;;;;;;;4.22;3.83;;;25.40;49.50;;;;;;5009855;28;20450;-63
2021/07/10 05:33:59;;;;;;;4.35;3.95;;;25.40;49.50;;;;;;5020752;28;20095;-58
2021/07/10 05:36:24;;;;;;;5.05;3.90;;;25.40;49.60;;;;;;5017432;28;20021;-60
2021/07/10 05:38:50;;;;;;;4.70;4.05;;;25.40;49.60;;;;;;5025194;28;20426;-60
2021/07/10 05:41:16;;;;;;;4.20;3.80;;;25.50;49.70;;;;;;5031062;28;20393;-54
2021/07/10 05:43:42;;;;;;;4.50;4.07;;;25.50;49.80;;;;;;5010524;28;20450;-59
2021/07/10 05:46:08;;;;;;;4.68;3.92;;;25.50;49.80;;;;;;5033394;28;20151;-57
2021/07/10 05:48:34;;;;;;;4.10;3.70;;;25.40;49.80;;;;;;5021617;28;20038;-60
2021/07/10 05:50:59;;;;;;;4.28;3.88;;;25.50;49.90;;;;;;5017343;28;20335;-56
2021/07/10 05:53:25;;;;;;;4.93;3.80;;;25.50;49.90;;;;;;5029828;28;20425;-58
2021/07/10 05:55:51;;;;;;;4.80;4.15;;;25.50;50.00;;;;;;5037016;28;20433;-59
2021/07/10 05:58:17;;;;;;;4.05;3.60;;;25.50;50.00;;;;;;5032429;28;20103;-63
2021/07/10 06:00:43;;;;;;;4.88;4.30;;;25.50;50.00;;;;;;5035591;28;20108;-57
2021/07/10 06:03:09;;;;;;;4.80;4.03;;;25.50;50.00;;;;;;5027676;28;20057;-55
2021/07/10 06:05:36;;;;;;;4.32;3.92;;;25.50;50.10;;;;;;5023462;28;20029;-61
2021/07/10 06:08:03;;;;;;;4.55;3.95;;;25.50;50.10;;;;;;5013773;28;20108;-54
2021/07/10 06:10:28;;;;;;;4.35;3.83;;;25.50;50.10;;;;;;5010683;28;20030;-57
2021/07/10 06:12:54;;;;;;;4.28;3.75;;;25.50;50.20;;;;;;5003273;28;20045;-60
2021/07/10 06:15:20;;;;;;;4.75;4.32;;;25.60;50.30;;;;;;5023925;28;20029;-58
2021/07/10 06:17:46;;;;;;;4.75;4.35;;;25.60;50.30;;;;;;5013320;28;20092;-53
2021/07/10 06:20:16;;;;;;;6.32;4.40;;;25.50;50.30;;;;;;5002865;28;20509;-59
2021/07/10 06:22:44;;;;;;;4.47;4.05;;;25.60;50.30;;;;;;5016907;28;20037;-58
2021/07/10 06:25:11;;;;;;;5.53;4.93;;;25.60;50.20;;;;;;5000811;28;20021;-54
2021/07/10 06:27:37;;;;;;;5.00;4.50;;;25.60;50.10;;;;;;5030691;28;20103;-57
2021/07/10 06:30:07;;;;;;;5.20;4.70;;;25.60;50.10;;;;;;5018012;28;20109;-49
2021/07/10 06:32:33;;;;;;;6.50;4.38;;;25.60;50.00;;;;;;5023331;28;20036;-53
2021/07/10 06:34:59;;;;;;;6.00;4.90;;;25.60;50.00;;;;;;5021831;28;20034;-50
2021/07/10 06:37:25;;;;;;;5.65;4.53;;;25.60;50.00;;;;;;5027602;28;20033;-58
2021/07/10 06:39:50;;;;;;;6.07;4.47;;;25.60;49.90;;;;;;5026518;28;20133;-58
2021/07/10 06:42:18;;;;;;;4.75;4.30;;;25.60;49.90;;;;;;4999453;28;20426;-55
2021/07/10 06:44:44;;;;;;;5.00;4.50;;;25.60;49.80;;;;;;5013604;28;20033;-57
2021/07/10 06:47:10;;;;;;;4.78;4.32;;;25.70;49.80;;;;;;5015007;28;20430;-58
2021/07/10 06:49:36;;;;;;;5.63;4.45;;;25.70;49.70;;;;;;5010507;28;20109;-58
2021/07/10 06:52:02;;;;;;;6.22;4.43;;;25.80;49.70;;;;;;4996744;28;20157;-54
2021/07/10 06:54:28;;;;;;;5.05;4.45;;;25.80;50.20;;;;;;5018450;28;20425;-54
2021/07/10 06:56:53;;;;;;;5.20;4.70;;;25.80;49.50;;;;;;5034779;28;20056;-56
2021/07/10 06:59:19;;;;;;;4.43;4.03;;;25.80;49.50;;;;;;5025689;28;20125;-59
2021/07/10 07:01:50;;;;;;;4.63;4.10;;;25.80;49.40;;;;;;5034492;28;20458;-54
2021/07/10 07:04:19;;;;;;;5.25;4.65;;;25.90;49.40;;;;;;5029191;28;20041;-57
2021/07/10 07:06:45;;;;;;;5.40;4.75;;;25.90;49.40;;;;;;5021711;28;20065;-57
2021/07/10 07:09:11;;;;;;;6.30;4.95;;;25.90;49.30;;;;;;5028313;28;20464;-58
2021/07/10 07:11:37;;;;;;;5.57;4.88;;;25.90;49.20;;;;;;5015398;28;20065;-56
2021/07/10 07:14:03;;;;;;;5.07;4.53;;;25.90;49.10;;;;;;5016455;28;20044;-56
2021/07/10 07:16:29;;;;;;;5.95;5.18;;;26.00;49.10;;;;;;5024721;28;20022;-55
2021/07/10 07:18:55;;;;;;;5.90;5.20;;;26.00;49.00;;;;;;5029364;28;20029;-54
2021/07/10 07:21:21;;;;;;;5.35;4.82;;;26.00;49.00;;;;;;5033193;28;20078;-56
2021/07/10 07:23:46;;;;;;;5.90;5.20;;;26.00;49.00;;;;;;5030948;28;20049;-58
2021/07/10 07:26:12;;;;;;;5.05;4.55;;;26.00;49.00;;;;;;5018075;28;20455;-55
2021/07/10 07:28:38;;;;;;;4.95;4.45;;;26.00;49.00;;;;;;5016647;28;20496;-51
2021/07/10 07:31:05;;;;;;;4.40;4.00;;;26.00;48.90;;;;;;5009087;28;20030;-56
2021/07/10 07:33:31;;;;;;;5.07;4.57;;;26.00;48.80;;;;;;5000201;28;20060;-53
2021/07/10 07:35:57;;;;;;;4.50;4.10;;;26.10;48.80;;;;;;5011099;28;20124;-56
2021/07/10 07:38:24;;;;;;;4.35;3.85;;;26.10;48.60;;;;;;5011444;28;20189;-56
2021/07/10 07:40:49;;;;;;;4.30;3.90;;;26.10;48.60;;;;;;5005050;28;20091;-57
2021/07/10 07:43:15;;;;;;;5.07;4.28;;;26.10;48.50;;;;;;5008104;28;20362;-57
2021/07/10 07:45:41;;;;;;;4.97;3.92;;;26.10;48.40;;;;;;5005573;28;20112;-58
2021/07/10 07:48:07;;;;;;;5.03;3.75;;;26.10;48.40;;;;;;5002165;28;20030;-56
2021/07/10 07:50:33;;;;;;;4.18;3.47;;;26.10;48.30;;;;;;5008255;28;20025;-57
2021/07/10 07:52:58;;;;;;;4.82;4.00;;;26.10;48.20;;;;;;5007936;28;20044;-57
2021/07/10 07:55:24;;;;;;;4.25;3.55;;;26.10;48.20;;;;;;5009498;28;20049;-60
2021/07/10 07:57:50;;;;;;;4.55;4.15;;;26.10;48.30;;;;;;5015883;28;20438;-61
2021/07/10 08:00:22;;;;;;;3.97;3.58;;;26.10;48.20;;;;;;5001552;28;20026;-60
2021/07/10 08:02:48;;;;;;;4.55;3.60;;;26.10;48.20;;;;;;4994839;28;20030;-58
2021/07/10 08:05:15;;;;;;;5.15;3.97;;;26.10;48.20;;;;;;5004665;28;20149;-63
2021/07/10 08:07:42;;;;;;;4.90;4.10;;;26.10;48.10;;;;;;5014470;28;20026;-62
2021/07/10 08:10:13;;;;;;;4.25;3.85;;;26.10;48.10;;;;;;5005851;28;20109;-54
2021/07/10 08:12:40;;;;;;;5.00;4.03;;;26.10;48.10;;;;;;4994154;28;20030;-60
2021/07/10 08:15:08;;;;;;;3.92;3.38;;;26.10;48.10;;;;;;4998084;28;20117;-62
2021/07/10 08:17:34;;;;;;;3.90;3.50;;;26.10;48.10;;;;;;4997642;28;20026;-60
2021/07/10 08:20:00;;;;;;;3.80;3.40;;;26.20;48.20;;;;;;4998247;28;20037;-59
2021/07/10 08:22:26;;;;;;;4.78;3.65;;;26.20;48.10;;;;;;5002872;28;20029;-63
2021/07/10 08:24:53;;;;;;;3.80;3.50;;;26.20;48.10;;;;;;5002667;28;20065;-55
2021/07/10 08:27:18;;;;;;;4.40;3.75;;;26.20;48.10;;;;;;4996378;28;20347;-57
2021/07/10 08:29:44;;;;;;;3.70;3.30;;;26.20;48.00;;;;;;5005384;28;20022;-57
2021/07/10 08:32:10;;;;;;;3.70;3.33;;;26.20;48.00;;;;;;5009629;28;20029;-61
2021/07/10 08:34:36;;;;;;;4.30;3.90;;;26.20;48.00;;;;;;4998995;28;20034;-59
2021/07/10 08:37:03;;;;;;;3.95;3.50;;;26.20;47.90;;;;;;5003948;28;20494;-60
2021/07/10 08:39:30;;;;;;;3.88;3.30;;;26.20;47.90;;;;;;4996732;28;20041;-60
2021/07/10 08:41:56;;;;;;;4.68;3.60;;;26.20;47.90;;;;;;5014991;28;20429;-58
2021/07/10 08:44:25;;;;;;;3.85;3.22;;;26.20;47.90;;;;;;5005700;28;20049;-57
2021/07/10 08:46:52;;;;;;;4.60;3.90;;;26.20;47.90;;;;;;5000387;28;20041;-61
2021/07/10 08:49:18;;;;;;;4.10;3.35;;;26.20;47.90;;;;;;5007033;28;20029;-56
2021/07/10 08:51:48;;;;;;;3.75;3.15;;;26.20;47.90;;;;;;5006906;28;20025;-56
2021/07/10 08:54:17;;;;;;;3.85;3.03;;;26.30;48.00;;;;;;5001535;28;20034;-61
2021/07/10 08:56:45;;;;;;;3.80;3.10;;;26.30;47.90;;;;;;5008583;28;20042;-60
2021/07/10 08:59:12;;;;;;;4.20;2.83;;;26.30;47.90;;;;;;5007163;28;20021;-59
2021/07/10 09:01:38;;;;;;;3.20;2.88;;;26.30;47.90;;;;;;5010780;28;20032;-56
2021/07/10 09:04:05;;;;;;;5.57;2.88;;;26.30;47.90;;;;;;5008479;28;20128;-59
2021/07/10 09:06:31;;;;;;;3.05;2.63;;;26.30;48.00;;;;;;5007768;28;20038;-59
2021/07/10 09:08:57;;;;;;;3.65;2.63;;;26.30;48.00;;;;;;5018859;28;20026;-57
2021/07/10 09:11:25;;;;;;;2.78;2.50;;;26.30;47.80;;;;;;5019004;28;20030;-63
2021/07/10 09:13:55;;;;;;;3.72;3.10;;;26.30;47.80;;;;;;5031186;28;20022;-51
2021/07/10 09:16:28;;;;;;;3.45;3.10;;;26.40;47.80;;;;;;5029652;28;20045;-54
2021/07/10 09:19:09;;;;;;;2.83;2.53;;;26.40;47.70;;;;;;5018263;28;20038;-61
2021/07/10 09:21:50;;;;;;;2.72;2.45;;;26.40;47.60;;;;;;5027434;28;20021;-60
2021/07/10 09:24:30;;;;;;;4.20;2.67;;;26.40;47.40;;;;;;5031508;28;20056;-59
2021/07/10 09:26:59;;;;;;;3.67;2.30;;;26.40;47.40;;;;;;4997228;28;20386;-62
2021/07/10 09:29:28;;;;;;;2.50;2.28;;;26.40;47.20;;;;;;5015759;28;20041;-61
2021/07/10 09:32:08;;;;;;;3.28;2.67;;;26.40;47.80;;;;;;5030579;28;20063;-58
2021/07/10 09:34:42;;;;;;;2.58;2.38;;;26.40;47.10;;;;;;4998134;28;20045;-61
2021/07/10 09:37:17;;;;;;;;;;;26.40;46.90;;;;;;5028567;28;20025;-61
2021/07/10 09:40:06;;;;;;;2.35;2.00;;;26.40;46.90;;;;;;5024385;28;20333;-61
2021/07/10 09:42:35;;;;;;;2.47;1.90;;;26.50;46.80;;;;;;5035033;28;20052;-63
2021/07/10 09:45:04;;;;;;;3.20;2.03;;;26.50;46.60;;;;;;5036654;28;20033;-60
2021/07/10 09:47:35;;;;;;;1.80;1.70;;;26.40;46.40;;;;;;5021724;28;20421;-64
2021/07/10 09:50:04;;;;;;;2.20;1.90;;;26.50;46.90;;;;;;5018757;28;20034;-59
2021/07/10 09:52:33;;;;;;;1.98;1.58;;;26.50;46.10;;;;;;5036945;28;20108;-57
2021/07/10 09:55:09;;;;;;;1.77;1.67;;;26.50;45.80;;;;;;5031263;28;20044;-60
2021/07/10 09:57:37;;;;;;;2.53;2.00;;;26.50;45.50;;;;;;5021350;28;20442;-60
2021/07/10 10:00:08;;;;;;;1.90;1.52;;;26.50;45.40;;;;;;5025994;28;20115;-62
2021/07/10 10:02:54;;;;;;;2.25;1.85;;;26.50;45.20;;;;;;5022588;28;20453;-59
2021/07/10 10:05:30;;;;;;;1.92;1.83;;;26.50;44.90;;;;;;5019391;28;20033;-56
2021/07/10 10:08:03;;;;;;;2.50;1.75;;;26.50;44.90;;;;;;5024702;28;20392;-58
2021/07/10 10:10:34;;;;;;;1.52;1.40;;;26.50;44.70;;;;;;5024890;28;20035;-60
2021/07/10 10:13:06;;;;;;;1.55;1.45;;;26.50;44.60;;;;;;5026301;28;20029;-60
2021/07/10 10:15:46;;;;;;;1.48;1.38;;;26.50;44.40;;;;;;5023500;28;20025;-55
2021/07/10 10:18:14;;;;;;;1.30;1.20;;;26.50;44.30;;;;;;5021200;28;20036;-63
2021/07/10 10:20:41;;;;;;;1.38;1.25;;;26.50;44.10;;;;;;5027241;28;20445;-59
2021/07/10 10:23:08;;;;;;;1.58;1.35;;;26.50;44.00;;;;;;5025774;28;20400;-57
2021/07/10 10:25:35;;;;;;;2.42;1.40;;;26.60;44.00;;;;;;5030006;28;20049;-55
2021/07/10 10:28:05;;;;;;;1.55;1.40;;;26.60;43.90;;;;;;5019025;28;20053;-58
2021/07/10 10:30:31;;;;;;;1.88;1.30;;;26.50;43.70;;;;;;5017065;28;20473;-61
2021/07/10 10:32:58;;;;;;;0.90;0.90;;;26.50;43.70;;;;;;5018038;28;20029;-62
2021/07/10 10:35:31;;;;;;;1.20;1.05;;;26.60;43.70;;;;;;5019193;28;20355;-57
2021/07/10 10:37:58;;;;;;;1.30;1.05;;;26.60;43.60;;;;;;5023383;28;20081;-62
2021/07/10 10:40:26;;;;;;;1.17;1.08;;;26.60;43.60;;;;;;5028794;28;20097;-57
2021/07/10 10:42:58;;;;;;;0.95;0.85;;;26.60;43.50;;;;;;5024129;28;20345;-57
2021/07/10 10:45:34;;;;;;;1.30;1.10;;;26.60;43.40;;;;;;5021133;28;20026;-55
2021/07/10 10:48:00;;;;;;;4.35;1.05;;;26.70;43.40;;;;;;5022493;28;20465;-60
2021/07/10 10:50:32;;;;;;;1.55;1.10;;;26.60;43.40;;;;;;5021359;28;20025;-60
2021/07/10 10:52:59;;;;;;;1.45;1.27;;;26.70;43.50;;;;;;5020027;28;20033;-55
2021/07/10 10:55:39;;;;;;;2.50;1.33;;;26.70;43.50;;;;;;5016706;28;20029;-55
2021/07/10 10:58:15;;;;;;;1.77;1.35;;;26.70;43.40;;;;;;5026563;28;20022;-59
2021/07/10 11:00:43;;;;;;;1.38;1.27;;;26.80;43.50;;;;;;5017445;28;20037;-59
2021/07/10 11:03:14;;;;;;;1.35;1.00;;;26.80;43.50;;;;;;5018272;28;20034;-56
2021/07/10 11:05:50;;;;;;;2.13;1.50;;;26.80;43.40;;;;;;5026640;28;20102;-51
2021/07/10 11:08:21;;;;;;;1.48;1.13;;;26.90;43.40;;;;;;5016508;28;20045;-56
2021/07/10 11:10:53;;;;;;;1.48;1.33;;;26.90;43.40;;;;;;5014684;28;20113;-59
2021/07/10 11:13:33;;;;;;;1.45;1.27;;;27.00;43.40;;;;;;5022952;28;20040;-56
2021/07/10 11:16:17;;;;;;;1.42;1.33;;;27.00;43.40;;;;;;5033541;28;20030;-59
2021/07/10 11:18:54;;;;;;;1.67;1.58;;;27.00;43.30;;;;;;5021611;28;20037;-56
2021/07/10 11:21:35;;;;;;;1.75;1.40;;;27.00;43.50;;;;;;5017236;28;20026;-54
2021/07/10 11:24:16;;;;;;;1.63;1.45;;;27.10;43.70;;;;;;5019575;28;20061;-60
2021/07/10 11:26:47;;;;;;;2.17;1.58;;;27.10;43.70;;;;;;5016950;28;20029;-59
2021/07/10 11:29:33;;;;;;;1.95;1.52;;;27.10;43.70;;;;;;5003157;28;20327;-57
2021/07/10 11:32:11;;;;;;;1.77;1.45;;;27.10;43.60;;;;;;5021745;28;20418;-59
2021/07/10 11:34:50;;;;;;;1.67;1.42;;;27.10;43.60;;;;;;5021455;28;20056;-60
2021/07/10 11:37:21;;;;;;;3.08;1.48;;;27.20;43.70;;;;;;5019862;28;20032;-60
2021/07/10 11:40:02;;;;;;;2.08;1.35;;;27.20;43.70;;;;;;5019194;28;20471;-67
2021/07/10 11:42:33;;;;;;;1.63;1.20;;;27.20;43.60;;;;;;5014246;28;20472;-63
2021/07/10 11:45:19;;;;;;;1.65;1.38;;;27.20;43.60;;;;;;5014676;28;20054;-62
2021/07/10 11:47:52;;;;;;;1.90;1.70;;;27.20;43.50;;;;;;5017739;28;20033;-67
2021/07/10 11:50:30;;;;;;;1.50;1.40;;;27.20;43.50;;;;;;5020179;28;20022;-66
2021/07/10 11:53:11;;;;;;;2.60;1.60;;;27.20;43.50;;;;;;5022656;28;20327;-62
2021/07/10 11:55:45;;;;;;;2.00;1.48;;;27.20;43.40;;;;;;4996395;28;20034;-60
2021/07/10 11:58:16;;;;;;;1.65;1.10;;;27.20;43.40;;;;;;5001542;28;20113;-64
2021/07/10 12:00:44;;;;;;;1.67;1.42;;;27.20;43.30;;;;;;5005288;28;20040;-61
2021/07/10 12:03:20;;;;;;;1.70;1.48;;;27.20;43.40;;;;;;5005155;28;20180;-62
2021/07/10 12:05:46;;;;;;;1.63;1.42;;;27.30;43.30;;;;;;5025619;28;20360;-62
2021/07/10 12:08:12;;;;;;;1.75;1.40;;;27.20;43.30;;;;;;5014039;28;20121;-58
2021/07/10 12:10:40;;;;;;;1.50;1.40;;;27.20;43.40;;;;;;5027332;28;20472;-58
2021/07/10 12:13:22;;;;;;;1.70;1.60;;;27.20;43.30;;;;;;5031312;28;20318;-62
2021/07/10 12:16:02;;;;;;;1.30;1.20;;;27.20;43.30;;;;;;5026185;28;20453;-58
2021/07/10 12:18:32;;;;;;;1.13;1.02;;;27.20;43.20;;;;;;5027841;28;20330;-53
2021/07/10 12:21:02;;;;;;;1.80;1.38;;;27.20;43.20;;;;;;5026595;28;20018;-60
2021/07/10 12:23:34;;;;;;;1.30;1.20;;;27.20;43.10;;;;;;5012685;28;20052;-52
2021/07/10 12:26:04;;;;;;;1.13;1.02;;;27.20;43.10;;;;;;5016378;28;20034;-56
2021/07/10 12:28:36;;;;;;;1.88;1.50;;;27.20;43.10;;;;;;5017918;28;20428;-56
2021/07/10 12:31:26;;;;;;;1.35;1.23;;;27.30;43.10;;;;;;5012605;28;20120;-55
2021/07/10 12:33:52;;;;;;;1.17;1.00;;;27.30;43.10;;;;;;5015682;28;20096;-57
2021/07/10 12:36:33;;;;;;;1.83;1.30;;;27.30;43.10;;;;;;5016088;28;20049;-58
2021/07/10 12:39:07;;;;;;;1.42;1.33;;;27.30;43.00;;;;;;5016968;28;20069;-60
2021/07/10 12:41:59;;;;;;;1.48;1.25;;;27.30;43.00;;;;;;5021697;28;20519;-57
2021/07/10 12:44:37;;;;;;;1.35;1.25;;;27.30;42.70;;;;;;5018364;28;20128;-59
2021/07/10 12:47:17;;;;;;;1.70;1.20;;;27.30;42.70;;;;;;5018192;28;20029;-56
2021/07/10 12:49:56;;;;;;;1.70;1.30;;;27.30;42.50;;;;;;5017382;28;20041;-58
2021/07/10 12:52:57;;;;;;;1.73;1.38;;;27.30;42.40;;;;;;5018482;28;20140;-61
2021/07/10 12:55:27;;;;;;;1.38;1.20;;;27.30;42.30;;;;;;5025322;28;20030;-60